createdAt,value
2018-11-27T00:00:33.630Z,24.90
2018-11-27T00:03:04.541Z,26.73
2018-11-27T00:05:34.154Z,30.73
2018-11-27T00:08:02.963Z,36.10
2018-11-27T00:10:33.477Z,43.53
2018-11-27T00:13:02.338Z,30.13
2018-11-27T00:15:31.116Z,21.67
2018-11-27T00:17:59.952Z,26.20
2018-11-27T00:20:29.083Z,31.67
2018-11-27T00:22:58.716Z,29.23
2018-11-27T00:25:27.515Z,26.80
2018-11-27T00:27:57.013Z,32.00
2018-11-27T00:30:25.968Z,40.27
2018-11-27T00:32:54.773Z,61.07
2018-11-27T00:35:23.558Z,20.70
2018-11-27T00:37:52.465Z,23.37
2018-11-27T00:40:23.438Z,21.27
2018-11-27T00:42:52.470Z,28.07
2018-11-27T00:45:21.818Z,21.77
2018-11-27T00:47:51.222Z,21.40
2018-11-27T00:50:23.974Z,25.73
2018-11-27T00:52:52.948Z,48.10
2018-11-27T00:55:22.293Z,33.23
2018-11-27T00:57:52.206Z,23.10
2018-11-27T01:00:21.946Z,23.40
2018-11-27T01:02:51.034Z,22.60
2018-11-27T01:05:21.259Z,21.63
2018-11-27T01:07:50.141Z,21.93
2018-11-27T01:10:21.813Z,22.13
2018-11-27T01:12:50.878Z,19.93
2018-11-27T01:15:19.665Z,20.53
2018-11-27T01:17:54.242Z,21.93
2018-11-27T01:20:23.231Z,20.17
2018-11-27T01:22:52.120Z,22.57
2018-11-27T01:25:20.962Z,22.37
2018-11-27T01:27:49.925Z,18.37
2018-11-27T01:30:20.925Z,18.60
2018-11-27T01:32:51.109Z,19.90
2018-11-27T01:35:21.794Z,20.10
2018-11-27T01:37:54.353Z,18.87
2018-11-27T01:40:24.988Z,20.40
2018-11-27T01:42:55.488Z,18.63
2018-11-27T01:45:24.848Z,21.13
2018-11-27T01:47:53.862Z,20.77
2018-11-27T01:50:22.910Z,19.63
2018-11-27T01:52:51.956Z,20.70
2018-11-27T01:55:22.609Z,19.63
2018-11-27T01:57:51.484Z,19.13
2018-11-27T02:00:29.534Z,19.17
2018-11-27T02:02:59.661Z,18.43
2018-11-27T02:05:29.228Z,18.40
2018-11-27T02:07:58.188Z,20.47
2018-11-27T02:10:27.171Z,20.43
2018-11-27T02:13:01.094Z,19.67
2018-11-27T02:15:27.121Z,22.80
2018-11-27T02:17:55.920Z,19.60
2018-11-27T02:20:24.813Z,19.50
2018-11-27T02:22:53.777Z,20.03
2018-11-27T02:25:26.337Z,18.43
2018-11-27T02:27:55.299Z,19.43
2018-11-27T02:30:25.262Z,17.67
2018-11-27T02:32:54.645Z,18.53
2018-11-27T02:35:25.330Z,20.50
2018-11-27T02:37:55.497Z,19.60
2018-11-27T02:40:24.277Z,19.87
2018-11-27T02:42:53.093Z,22.40
2018-11-27T02:45:24.399Z,20.17
2018-11-27T02:47:54.018Z,21.27
2018-11-27T02:50:24.191Z,19.67
2018-11-27T02:52:53.066Z,20.60
2018-11-27T02:55:22.885Z,19.53
2018-11-27T02:57:51.674Z,22.23
2018-11-27T03:00:22.586Z,19.33
2018-11-27T03:02:51.373Z,22.50
2018-11-27T03:05:23.926Z,20.27
2018-11-27T03:07:52.689Z,21.33
2018-11-27T03:10:21.473Z,23.10
2018-11-27T03:12:50.293Z,20.93
2018-11-27T03:15:19.137Z,21.83
2018-11-27T03:17:47.855Z,21.27
2018-11-27T03:20:17.388Z,21.17
2018-11-27T03:22:46.259Z,21.53
2018-11-27T03:25:16.724Z,21.23
2018-11-27T03:27:46.410Z,21.70
2018-11-27T03:30:18.176Z,20.50
2018-11-27T03:32:47.046Z,21.07
2018-11-27T03:35:18.305Z,21.80
2018-11-27T03:37:47.805Z,18.67
2018-11-27T03:40:19.383Z,19.63
2018-11-27T03:42:48.890Z,18.67
2018-11-27T03:45:18.725Z,18.37
2018-11-27T03:47:47.631Z,21.20
2018-11-27T03:50:18.092Z,21.17
2018-11-27T03:52:46.960Z,20.67
2018-11-27T03:55:15.816Z,20.97
2018-11-27T03:57:44.724Z,21.63
2018-11-27T04:00:16.653Z,19.77
2018-11-27T04:02:47.006Z,20.37
2018-11-27T04:05:16.006Z,22.03
2018-11-27T04:07:44.821Z,21.97
2018-11-27T04:10:17.087Z,23.13
2018-11-27T04:12:45.989Z,23.37
2018-11-27T04:15:15.299Z,22.93
2018-11-27T04:17:44.201Z,21.33
2018-11-27T04:20:13.431Z,22.27
2018-11-27T04:22:44.253Z,23.53
2018-11-27T04:25:16.023Z,19.37
2018-11-27T04:27:45.420Z,21.20
2018-11-27T04:30:20.780Z,19.57
2018-11-27T04:32:49.955Z,19.33
2018-11-27T04:35:19.682Z,21.87
2018-11-27T04:37:48.635Z,21.40
2018-11-27T04:40:18.405Z,20.93
2018-11-27T04:42:47.690Z,22.43
2018-11-27T04:45:21.628Z,21.00
2018-11-27T04:47:50.682Z,21.73
2018-11-27T04:50:19.808Z,24.57
2018-11-27T04:52:48.724Z,23.33
2018-11-27T04:55:19.950Z,22.47
2018-11-27T04:57:49.261Z,25.40
2018-11-27T05:00:20.002Z,23.27
2018-11-27T05:02:48.953Z,23.47
2018-11-27T05:05:18.047Z,23.67
2018-11-27T05:07:47.186Z,21.37
2018-11-27T05:10:19.603Z,21.33
2018-11-27T05:12:48.438Z,20.00
2018-11-27T05:15:18.311Z,22.63
2018-11-27T05:17:48.446Z,21.40
2018-11-27T05:20:17.217Z,20.00
2018-11-27T05:22:46.097Z,23.00
2018-11-27T05:25:16.014Z,21.17
2018-11-27T05:27:46.770Z,21.93
2018-11-27T05:30:19.606Z,21.83
2018-11-27T05:32:48.406Z,24.30
2018-11-27T05:35:18.478Z,22.47
2018-11-27T05:37:48.317Z,21.37
2018-11-27T05:40:18.437Z,23.37
2018-11-27T05:42:48.555Z,28.20
2018-11-27T05:45:18.500Z,24.93
2018-11-27T05:47:47.413Z,21.90
2018-11-27T05:50:17.201Z,23.03
2018-11-27T05:52:46.133Z,20.90
2018-11-27T05:55:15.398Z,23.00
2018-11-27T05:57:45.377Z,21.97
2018-11-27T06:00:22.088Z,24.20
2018-11-27T06:02:52.119Z,23.33
2018-11-27T06:05:21.760Z,25.60
2018-11-27T06:07:50.696Z,23.77
2018-11-27T06:10:20.495Z,23.60
2018-11-27T06:12:49.280Z,25.93
2018-11-27T06:15:23.057Z,25.93
2018-11-27T06:17:52.977Z,25.97
2018-11-27T06:20:22.403Z,25.07
2018-11-27T06:22:51.602Z,26.40
2018-11-27T06:25:22.525Z,28.47
2018-11-27T06:27:56.539Z,28.37
2018-11-27T06:30:26.342Z,27.13
2018-11-27T06:32:55.447Z,28.90
2018-11-27T06:35:25.676Z,29.27
2018-11-27T06:37:54.490Z,31.63
2018-11-27T06:40:24.693Z,27.57
2018-11-27T06:42:53.506Z,29.37
2018-11-27T06:45:22.605Z,30.27
2018-11-27T06:47:52.270Z,33.30
2018-11-27T06:50:21.874Z,31.20
2018-11-27T06:52:50.685Z,28.27
2018-11-27T06:55:21.467Z,31.13
2018-11-27T06:57:50.381Z,28.43
2018-11-27T07:00:23.497Z,31.07
2018-11-27T07:02:52.325Z,30.30
2018-11-27T07:05:21.086Z,29.60
2018-11-27T07:07:49.892Z,32.63
2018-11-27T07:10:24.890Z,32.37
2018-11-27T07:12:58.455Z,31.17
2018-11-27T07:15:27.214Z,29.37
2018-11-27T07:17:56.086Z,31.33
2018-11-27T07:20:25.206Z,29.10
2018-11-27T07:22:53.965Z,34.73
2018-11-27T07:25:22.743Z,30.07
2018-11-27T07:27:51.726Z,32.47
2018-11-27T07:30:21.835Z,35.00
2018-11-27T07:32:50.934Z,36.07
2018-11-27T07:35:19.929Z,41.00
2018-11-27T07:37:48.786Z,116.60
2018-11-27T07:40:23.590Z,61.10
2018-11-27T07:42:54.591Z,38.53
2018-11-27T07:45:23.917Z,36.50
2018-11-27T07:47:52.701Z,38.57
2018-11-27T07:50:21.497Z,42.80
2018-11-27T07:52:50.289Z,39.63
2018-11-27T07:55:20.154Z,41.07
2018-11-27T07:57:49.504Z,45.17
2018-11-27T08:00:19.611Z,47.27
2018-11-27T08:02:50.417Z,45.43
2018-11-27T08:05:24.324Z,40.40
2018-11-27T08:07:54.099Z,43.47
2018-11-27T08:10:30.634Z,50.40
2018-11-27T08:12:59.402Z,41.73
2018-11-27T08:15:29.313Z,44.17
2018-11-27T08:17:58.106Z,50.33
2018-11-27T08:20:31.779Z,44.53
2018-11-27T08:23:00.633Z,45.37
2018-11-27T08:25:29.417Z,45.73
2018-11-27T08:27:58.201Z,45.87
2018-11-27T08:30:26.986Z,44.60
2018-11-27T08:32:56.528Z,46.80
2018-11-27T08:35:26.905Z,44.33
2018-11-27T08:37:57.941Z,41.47
2018-11-27T08:40:28.014Z,40.70
2018-11-27T08:42:56.885Z,42.03
2018-11-27T08:45:25.837Z,42.43
2018-11-27T08:47:55.306Z,38.77
2018-11-27T08:50:26.043Z,40.37
2018-11-27T08:52:58.215Z,41.17
2018-11-27T08:55:31.584Z,36.53
2018-11-27T08:58:01.096Z,40.07
2018-11-27T09:00:29.866Z,40.40
2018-11-27T09:02:58.643Z,51.43
2018-11-27T09:05:27.410Z,50.60
2018-11-27T09:07:56.184Z,36.43
2018-11-27T09:10:25.814Z,48.77
2018-11-27T09:12:54.597Z,35.53
2018-11-27T09:15:23.953Z,34.57
2018-11-27T09:17:59.030Z,32.53
2018-11-27T09:20:27.917Z,33.33
2018-11-27T09:22:56.820Z,30.90
2018-11-27T09:25:25.638Z,30.17
2018-11-27T09:27:54.669Z,31.83
2018-11-27T09:30:24.714Z,31.93
2018-11-27T09:32:54.182Z,32.60
2018-11-27T09:35:23.050Z,29.90
2018-11-27T09:37:51.826Z,32.30
2018-11-27T09:40:21.410Z,31.53
2018-11-27T09:42:50.198Z,30.27
2018-11-27T09:45:20.061Z,34.37
2018-11-27T09:47:49.962Z,33.30
2018-11-27T09:50:18.752Z,32.30
2018-11-27T09:52:47.552Z,30.10
2018-11-27T09:55:18.216Z,29.97
2018-11-27T09:57:47.053Z,27.90
2018-11-27T10:00:18.011Z,30.37
2018-11-27T10:02:46.917Z,30.90
2018-11-27T10:05:16.022Z,27.60
2018-11-27T10:07:44.786Z,31.57
2018-11-27T10:10:16.869Z,27.57
2018-11-27T10:12:46.138Z,31.23
2018-11-27T10:15:15.954Z,27.83
2018-11-27T10:17:45.895Z,31.97
2018-11-27T10:20:16.622Z,32.27
2018-11-27T10:22:45.610Z,35.47
2018-11-27T10:25:14.461Z,36.63
2018-11-27T10:27:44.943Z,32.63
2018-11-27T10:30:19.721Z,40.97
2018-11-27T10:32:50.121Z,34.43
2018-11-27T10:35:23.549Z,36.63
2018-11-27T10:37:53.314Z,34.73
2018-11-27T10:40:22.991Z,34.33
2018-11-27T10:42:53.218Z,33.53
2018-11-27T10:45:22.797Z,32.03
2018-11-27T10:47:53.675Z,38.70
2018-11-27T10:50:22.551Z,32.33
2018-11-27T10:52:53.312Z,31.23
2018-11-27T10:55:22.570Z,32.93
2018-11-27T10:57:51.354Z,29.90
2018-11-27T11:00:27.318Z,36.00
2018-11-27T11:04:04.228Z,46.60
2018-11-27T11:06:34.804Z,35.90
2018-11-27T11:09:07.721Z,30.60
2018-11-27T11:11:36.869Z,33.97
2018-11-27T11:14:06.089Z,31.33
2018-11-27T11:16:34.978Z,32.73
2018-11-27T11:19:03.771Z,34.37
2018-11-27T11:21:32.587Z,29.23
2018-11-27T11:24:01.369Z,29.57
2018-11-27T11:26:30.210Z,28.87
2018-11-27T11:28:58.986Z,29.60
2018-11-27T11:31:27.936Z,29.57
2018-11-27T11:33:56.705Z,30.23
2018-11-27T11:36:25.470Z,29.87
2018-11-27T11:38:55.306Z,27.70
2018-11-27T11:41:24.099Z,29.53
2018-11-27T11:43:52.891Z,28.40
2018-11-27T11:46:21.685Z,32.73
2018-11-27T11:48:50.457Z,29.43
2018-11-27T11:51:19.254Z,31.67
2018-11-27T11:53:48.031Z,27.43
2018-11-27T11:56:16.804Z,25.00
2018-11-27T11:58:45.585Z,24.30
2018-11-27T12:01:14.449Z,28.83
2018-11-27T12:03:43.226Z,29.83
2018-11-27T12:06:12.006Z,31.10
2018-11-27T12:08:40.774Z,28.67
2018-11-27T12:11:09.588Z,30.50
2018-11-27T12:13:38.389Z,28.57
2018-11-27T12:16:07.162Z,33.83
2018-11-27T12:18:35.952Z,27.23
2018-11-27T12:21:04.983Z,29.60
2018-11-27T12:23:33.781Z,27.37
2018-11-27T12:26:02.570Z,25.90
2018-11-27T12:28:31.368Z,27.33
2018-11-27T12:31:00.143Z,25.47
2018-11-27T12:33:28.938Z,26.43
2018-11-27T12:35:57.831Z,29.60
2018-11-27T12:38:26.734Z,29.47
2018-11-27T12:40:55.630Z,29.37
2018-11-27T12:43:24.756Z,29.87
2018-11-27T12:45:53.529Z,29.90
2018-11-27T12:48:22.357Z,26.23
2018-11-27T12:50:51.561Z,30.67
2018-11-27T12:53:20.349Z,29.50
2018-11-27T12:55:50.120Z,38.67
2018-11-27T12:58:18.899Z,29.07
2018-11-27T13:00:47.737Z,32.40
2018-11-27T13:03:16.706Z,32.77
2018-11-27T13:05:46.297Z,33.27
2018-11-27T13:08:17.534Z,30.87
2018-11-27T13:10:46.347Z,29.10
2018-11-27T13:13:15.341Z,30.50
2018-11-27T13:15:44.625Z,30.13
2018-11-27T13:18:13.417Z,31.33
2018-11-27T13:20:42.341Z,29.10
2018-11-27T13:23:11.105Z,31.57
2018-11-27T13:25:39.944Z,27.73
2018-11-27T13:28:10.073Z,26.17
2018-11-27T13:31:10.825Z,24.90
2018-11-27T13:33:49.887Z,31.07
2018-11-27T13:36:18.705Z,27.60
2018-11-27T13:38:47.478Z,30.43
2018-11-27T13:41:16.277Z,30.30
2018-11-27T13:43:45.058Z,35.53
2018-11-27T13:46:13.842Z,28.53
2018-11-27T13:48:42.643Z,25.50
2018-11-27T13:51:11.414Z,24.63
2018-11-27T13:53:40.189Z,27.80
2018-11-27T13:56:08.992Z,28.27
2018-11-27T13:58:37.754Z,29.00
2018-11-27T14:01:06.599Z,28.33
2018-11-27T14:03:35.371Z,30.00
2018-11-27T14:06:04.162Z,29.00
2018-11-27T14:08:32.950Z,27.83
2018-11-27T14:11:01.733Z,28.97
2018-11-27T14:13:30.598Z,31.50
2018-11-27T14:15:59.748Z,32.73
2018-11-27T14:18:28.568Z,28.40
2018-11-27T14:20:57.322Z,28.13
2018-11-27T14:23:26.143Z,28.40
2018-11-27T14:25:54.958Z,30.23
2018-11-27T14:28:23.760Z,29.83
2018-11-27T14:30:52.530Z,26.20
2018-11-27T14:33:21.318Z,30.13
2018-11-27T14:35:50.102Z,32.63
2018-11-27T14:38:18.881Z,29.73
2018-11-27T14:40:47.651Z,31.10
2018-11-27T14:43:16.485Z,30.37
2018-11-27T14:45:45.254Z,26.67
2018-11-27T14:48:14.041Z,23.60
2018-11-27T14:50:42.817Z,27.67
2018-11-27T14:53:11.613Z,27.57
2018-11-27T14:55:40.687Z,29.73
2018-11-27T14:58:14.899Z,29.40
2018-11-27T15:00:38.233Z,25.10
2018-11-27T15:03:07.026Z,25.83
2018-11-27T15:05:36.942Z,29.40
2018-11-27T15:08:08.285Z,29.17
2018-11-27T15:10:37.072Z,30.27
2018-11-27T15:13:06.691Z,35.83
2018-11-27T15:15:35.520Z,33.93
2018-11-27T15:18:04.601Z,30.10
2018-11-27T15:20:33.443Z,31.87
2018-11-27T15:23:02.669Z,31.57
2018-11-27T15:25:31.455Z,30.03
2018-11-27T15:28:00.233Z,26.10
2018-11-27T15:30:30.761Z,29.93
2018-11-27T15:33:00.225Z,36.37
2018-11-27T15:35:32.170Z,39.20
2018-11-27T15:38:00.941Z,44.47
2018-11-27T15:40:30.191Z,33.07
2018-11-27T15:42:59.149Z,42.30
2018-11-27T15:45:30.066Z,38.43
2018-11-27T15:47:58.917Z,36.13
2018-11-27T15:50:27.859Z,71.63
2018-11-27T15:52:56.662Z,41.03
2018-11-27T15:55:27.537Z,61.83
2018-11-27T15:57:57.901Z,34.43
2018-11-27T16:00:26.822Z,33.27
2018-11-27T16:02:55.806Z,31.23
2018-11-27T16:05:24.601Z,29.40
2018-11-27T16:07:53.404Z,34.00
2018-11-27T16:10:22.550Z,35.90
2018-11-27T16:12:51.332Z,27.90
2018-11-27T16:15:20.564Z,27.40
2018-11-27T16:17:49.995Z,32.97
2018-11-27T16:20:21.360Z,31.77
2018-11-27T16:22:51.186Z,32.67
2018-11-27T16:25:22.178Z,36.80
2018-11-27T16:27:51.062Z,33.13
2018-11-27T16:30:20.951Z,29.77
2018-11-27T16:32:49.741Z,31.30
2018-11-27T16:35:18.533Z,26.93
2018-11-27T16:37:48.846Z,28.83
2018-11-27T16:40:20.877Z,30.90
2018-11-27T16:42:49.690Z,34.17
2018-11-27T16:45:20.471Z,27.10
2018-11-27T16:47:49.908Z,34.73
2018-11-27T16:50:19.025Z,28.90
2018-11-27T16:52:48.121Z,24.00
2018-11-27T16:55:18.013Z,22.30
2018-11-27T16:57:46.868Z,23.53
2018-11-27T17:00:19.537Z,24.63
2018-11-27T17:02:50.347Z,24.83
2018-11-27T17:05:17.999Z,22.67
2018-11-27T17:07:46.811Z,25.57
2018-11-27T17:10:16.569Z,26.00
2018-11-27T17:12:46.006Z,28.63
2018-11-27T17:15:17.878Z,28.17
2018-11-27T17:17:46.748Z,30.77
2018-11-27T17:20:36.085Z,30.60
2018-11-27T17:23:07.973Z,26.80
2018-11-27T17:25:36.905Z,27.87
2018-11-27T17:28:11.574Z,25.87
2018-11-27T17:30:49.321Z,24.83
2018-11-27T17:33:22.646Z,25.53
2018-11-27T17:35:51.441Z,22.87
2018-11-27T17:38:20.319Z,24.93
2018-11-27T17:40:49.125Z,24.97
2018-11-27T17:43:18.013Z,24.70
2018-11-27T17:45:47.034Z,20.97
2018-11-27T17:48:15.986Z,18.47
2018-11-27T17:50:44.782Z,19.77
2018-11-27T17:53:13.661Z,77.30
2018-11-27T17:55:42.450Z,28.57
2018-11-27T17:58:11.265Z,26.17
2018-11-27T18:00:40.345Z,25.57
2018-11-27T18:03:10.176Z,27.83
2018-11-27T18:05:39.117Z,29.53
2018-11-27T18:08:08.078Z,28.13
2018-11-27T18:10:36.974Z,29.20
2018-11-27T18:13:06.606Z,29.57
2018-11-27T18:15:36.651Z,38.43
2018-11-27T18:18:06.657Z,29.90
2018-11-27T18:20:35.942Z,31.33
2018-11-27T18:23:04.865Z,27.17
2018-11-27T18:25:33.698Z,24.53
2018-11-27T18:28:02.551Z,29.20
2018-11-27T18:30:31.387Z,26.37
2018-11-27T18:33:00.210Z,25.60
2018-11-27T18:35:29.002Z,25.17
2018-11-27T18:37:58.149Z,33.13
2018-11-27T18:40:26.941Z,38.47
2018-11-27T18:42:55.769Z,36.93
2018-11-27T18:45:25.774Z,25.50
2018-11-27T18:47:54.578Z,30.53
2018-11-27T18:50:24.462Z,32.10
2018-11-27T18:52:53.281Z,30.37
2018-11-27T18:55:22.177Z,33.07
2018-11-27T18:57:51.070Z,29.90
2018-11-27T19:00:22.001Z,25.67
2018-11-27T19:02:51.041Z,22.77
2018-11-27T19:05:19.907Z,26.90
2018-11-27T19:07:48.811Z,29.33
2018-11-27T19:10:21.605Z,28.00
2018-11-27T19:12:51.016Z,24.70
2018-11-27T19:15:22.337Z,62.17
2018-11-27T19:17:53.181Z,42.33
2018-11-27T19:20:22.014Z,29.73
2018-11-27T19:22:51.077Z,33.77
2018-11-27T19:25:19.865Z,27.53
2018-11-27T19:27:48.910Z,33.13
2018-11-27T19:30:18.873Z,29.10
2018-11-27T19:32:47.666Z,33.30
2018-11-27T19:35:17.750Z,40.40
2018-11-27T19:37:47.419Z,35.13
2018-11-27T19:40:17.507Z,33.30
2018-11-27T19:42:46.371Z,29.97
2018-11-27T19:45:18.172Z,27.57
2018-11-27T19:47:47.117Z,32.93
2018-11-27T19:50:16.027Z,29.90
2018-11-27T19:52:45.814Z,32.50
2018-11-27T19:55:15.709Z,29.90
2018-11-27T19:57:44.519Z,31.23
2018-11-27T20:00:15.759Z,26.20
2018-11-27T20:02:44.658Z,30.43
2018-11-27T20:05:14.844Z,28.30
2018-11-27T20:07:43.726Z,32.33
2018-11-27T20:10:13.419Z,22.80
2018-11-27T20:12:42.366Z,29.93
2018-11-27T20:15:17.377Z,25.47
2018-11-27T20:17:46.713Z,22.10
2018-11-27T20:20:16.607Z,21.20
2018-11-27T20:22:45.387Z,27.17
2018-11-27T20:25:16.176Z,25.90
2018-11-27T20:27:45.018Z,22.50
2018-11-27T20:30:16.365Z,20.70
2018-11-27T20:32:46.805Z,22.13
2018-11-27T20:35:15.874Z,24.13
2018-11-27T20:37:45.110Z,25.93
2018-11-27T20:40:15.778Z,27.23
2018-11-27T20:42:44.931Z,25.27
2018-11-27T20:45:19.383Z,48.93
2018-11-27T20:47:46.145Z,48.07
2018-11-27T20:50:17.129Z,39.57
2018-11-27T20:52:45.999Z,26.90
2018-11-27T20:55:15.125Z,55.60
2018-11-27T20:57:55.264Z,38.10
2018-11-27T21:00:40.932Z,29.57
2018-11-27T21:03:11.148Z,40.80
2018-11-27T21:05:40.357Z,32.90
2018-11-27T21:08:09.330Z,25.60
2018-11-27T21:10:38.624Z,32.73
2018-11-27T21:13:08.724Z,33.17
2018-11-27T21:15:38.264Z,25.63
2018-11-27T21:18:07.831Z,22.67
2018-11-27T21:20:36.650Z,23.50
2018-11-27T21:23:05.525Z,24.17
2018-11-27T21:25:34.309Z,24.77
2018-11-27T21:28:12.355Z,23.20
2018-11-27T21:30:41.206Z,25.00
2018-11-27T21:33:10.052Z,23.27
2018-11-27T21:35:39.078Z,23.40
2018-11-27T21:38:07.833Z,20.73
2018-11-27T21:40:37.103Z,23.97
2018-11-27T21:43:07.348Z,28.17
2018-11-27T21:45:36.298Z,25.93
2018-11-27T21:48:05.474Z,19.40
2018-11-27T21:50:39.349Z,23.80
2018-11-27T21:53:08.129Z,26.03
2018-11-27T21:55:37.554Z,22.77
2018-11-27T21:58:06.938Z,23.73
2018-11-27T22:00:36.062Z,20.90
2018-11-27T22:03:05.390Z,18.93
2018-11-27T22:05:34.203Z,20.87
2018-11-27T22:08:04.030Z,21.93
2018-11-27T22:10:32.849Z,23.77
2018-11-27T22:13:01.692Z,28.13
2018-11-27T22:15:35.028Z,26.07
2018-11-27T22:18:04.717Z,31.93
2018-11-27T22:20:33.528Z,38.80
2018-11-27T22:23:02.498Z,31.60
2018-11-27T22:25:31.318Z,31.20
2018-11-27T22:28:00.161Z,30.30
2018-11-27T22:30:28.954Z,26.87
2018-11-27T22:32:57.807Z,29.30
2018-11-27T22:35:26.557Z,29.37
2018-11-27T22:37:55.558Z,30.03
2018-11-27T22:40:25.378Z,26.30
2018-11-27T22:42:55.133Z,29.80
2018-11-27T22:45:34.696Z,42.67
2018-11-27T22:48:03.660Z,74.57
2018-11-27T22:50:32.594Z,44.47
2018-11-27T22:53:01.413Z,32.73
2018-11-27T22:55:30.201Z,27.87
2018-11-27T22:57:59.113Z,24.67
2018-11-27T23:00:33.773Z,24.10
2018-11-27T23:03:02.689Z,26.33
2018-11-27T23:05:31.545Z,59.90
2018-11-27T23:08:00.592Z,45.90
2018-11-27T23:10:32.124Z,48.87
2018-11-27T23:13:01.289Z,35.37
2018-11-27T23:15:30.114Z,26.60
2018-11-27T23:17:58.970Z,24.10
2018-11-27T23:20:27.788Z,26.20
2018-11-27T23:22:56.618Z,23.40
2018-11-27T23:25:25.389Z,22.07
2018-11-27T23:27:54.486Z,23.53
2018-11-27T23:30:24.162Z,24.27
2018-11-27T23:32:53.137Z,22.53
2018-11-27T23:35:21.945Z,31.17
2018-11-27T23:37:50.848Z,39.77
2018-11-27T23:40:21.253Z,28.63
2018-11-27T23:42:50.123Z,20.63
2018-11-27T23:45:20.373Z,22.33
2018-11-27T23:47:49.230Z,22.73
2018-11-27T23:50:19.014Z,22.90
2018-11-27T23:52:47.943Z,22.97
2018-11-27T23:55:17.574Z,22.53
2018-11-27T23:57:46.838Z,24.33
